sensor_id;sensor_type;location;lat;lon;timestamp;pressure;altitude;pressure_sealevel;temperature;humidity
75039;BME280;63609;49.992;14.512;2023-04-03T00:03:31;98746.00;;;1.54;60.63
75039;BME280;63609;49.992;14.512;2023-04-03T00:05:59;98737.19;;;2.05;58.71
75039;BME280;63609;49.992;14.512;2023-04-03T00:08:26;98737.81;;;2.26;58.50
75039;BME280;63609;49.992;14.512;2023-04-03T00:10:54;98748.34;;;2.26;57.99
75039;BME280;63609;49.992;14.512;2023-04-03T00:13:21;98738.72;;;2.10;58.15
75039;BME280;63609;49.992;14.512;2023-04-03T00:15:47;98744.50;;;2.00;58.97
75039;BME280;63609;49.992;14.512;2023-04-03T00:18:14;98746.63;;;1.59;59.69
75039;BME280;63609;49.992;14.512;2023-04-03T00:20:42;98753.53;;;2.28;57.93
75039;BME280;63609;49.992;14.512;2023-04-03T00:23:09;98753.47;;;1.96;59.19
75039;BME280;63609;49.992;14.512;2023-04-03T00:25:37;98754.53;;;2.10;58.38
75039;BME280;63609;49.992;14.512;2023-04-03T00:28:04;98762.69;;;2.05;58.46
75039;BME280;63609;49.992;14.512;2023-04-03T00:30:32;98756.84;;;2.31;57.86
75039;BME280;63609;49.992;14.512;2023-04-03T00:32:59;98755.16;;;2.30;57.92
75039;BME280;63609;49.992;14.512;2023-04-03T00:35:28;98748.03;;;2.48;57.67
75039;BME280;63609;49.992;14.512;2023-04-03T00:37:56;98750.69;;;2.48;57.46
75039;BME280;63609;49.992;14.512;2023-04-03T00:40:25;98762.66;;;2.54;57.31
75039;BME280;63609;49.992;14.512;2023-04-03T00:42:59;98765.69;;;2.30;57.58
75039;BME280;63609;49.992;14.512;2023-04-03T00:45:42;98751.50;;;2.00;58.89
75039;BME280;63609;49.992;14.512;2023-04-03T00:48:12;98759.50;;;1.98;59.21
75039;BME280;63609;49.992;14.512;2023-04-03T00:50:42;98761.72;;;2.39;57.65
75039;BME280;63609;49.992;14.512;2023-04-03T00:53:18;98764.47;;;1.87;59.09
75039;BME280;63609;49.992;14.512;2023-04-03T00:55:47;98767.03;;;1.89;58.91
75039;BME280;63609;49.992;14.512;2023-04-03T00:58:16;98764.56;;;1.86;58.98
75039;BME280;63609;49.992;14.512;2023-04-03T01:00:48;98765.31;;;1.88;58.81
75039;BME280;63609;49.992;14.512;2023-04-03T01:03:20;98760.41;;;2.15;58.18
75039;BME280;63609;49.992;14.512;2023-04-03T01:05:48;98762.38;;;2.27;58.27
75039;BME280;63609;49.992;14.512;2023-04-03T01:08:16;98767.19;;;2.19;58.36
75039;BME280;63609;49.992;14.512;2023-04-03T01:10:43;98765.00;;;1.94;59.08
75039;BME280;63609;49.992;14.512;2023-04-03T01:13:25;98761.13;;;2.01;58.65
75039;BME280;63609;49.992;14.512;2023-04-03T01:15:53;98765.09;;;1.92;58.79
75039;BME280;63609;49.992;14.512;2023-04-03T01:18:22;98770.09;;;2.30;57.70
75039;BME280;63609;49.992;14.512;2023-04-03T01:21:34;98770.69;;;1.86;57.16
75039;BME280;63609;49.992;14.512;2023-04-03T01:24:06;98778.97;;;1.79;57.41
75039;BME280;63609;49.992;14.512;2023-04-03T01:26:38;98776.91;;;1.68;57.56
75039;BME280;63609;49.992;14.512;2023-04-03T01:29:06;98783.47;;;1.77;57.30
75039;BME280;63609;49.992;14.512;2023-04-03T01:34:02;98779.22;;;1.74;56.51
75039;BME280;63609;49.992;14.512;2023-04-03T01:36:34;98789.91;;;1.71;56.86
75039;BME280;63609;49.992;14.512;2023-04-03T01:39:01;98787.22;;;1.36;56.74
75039;BME280;63609;49.992;14.512;2023-04-03T01:41:28;98785.47;;;1.54;56.46
75039;BME280;63609;49.992;14.512;2023-04-03T01:44:03;98789.97;;;1.52;55.77
75039;BME280;63609;49.992;14.512;2023-04-03T01:46:32;98798.09;;;1.65;55.37
75039;BME280;63609;49.992;14.512;2023-04-03T01:48:59;98795.63;;;1.62;54.99
75039;BME280;63609;49.992;14.512;2023-04-03T01:51:27;98795.13;;;1.36;55.20
75039;BME280;63609;49.992;14.512;2023-04-03T01:53:54;98803.53;;;1.26;55.39
75039;BME280;63609;49.992;14.512;2023-04-03T01:56:21;98803.84;;;1.73;54.56
75039;BME280;63609;49.992;14.512;2023-04-03T01:58:49;98809.38;;;1.67;54.53
75039;BME280;63609;49.992;14.512;2023-04-03T02:01:17;98813.47;;;1.38;54.53
75039;BME280;63609;49.992;14.512;2023-04-03T02:03:44;98810.47;;;1.09;54.61
75039;BME280;63609;49.992;14.512;2023-04-03T02:06:12;98805.84;;;1.32;54.46
75039;BME280;63609;49.992;14.512;2023-04-03T02:08:40;98807.22;;;1.04;55.17
75039;BME280;63609;49.992;14.512;2023-04-03T02:11:08;98813.81;;;0.94;54.47
75039;BME280;63609;49.992;14.512;2023-04-03T02:13:35;98823.84;;;0.86;54.26
75039;BME280;63609;49.992;14.512;2023-04-03T02:16:07;98822.69;;;0.92;53.32
75039;BME280;63609;49.992;14.512;2023-04-03T02:18:34;98820.72;;;0.78;53.20
75039;BME280;63609;49.992;14.512;2023-04-03T02:21:01;98819.59;;;0.46;54.31
75039;BME280;63609;49.992;14.512;2023-04-03T02:23:28;98821.97;;;0.32;54.00
75039;BME280;63609;49.992;14.512;2023-04-03T02:26:07;98824.69;;;0.49;54.19
75039;BME280;63609;49.992;14.512;2023-04-03T02:28:34;98830.13;;;0.26;53.10
75039;BME280;63609;49.992;14.512;2023-04-03T02:31:02;98823.03;;;0.28;53.23
75039;BME280;63609;49.992;14.512;2023-04-03T02:33:31;98829.59;;;0.38;53.16
75039;BME280;63609;49.992;14.512;2023-04-03T02:35:58;98824.84;;;0.46;53.20
75039;BME280;63609;49.992;14.512;2023-04-03T02:38:28;98838.97;;;0.43;54.00
75039;BME280;63609;49.992;14.512;2023-04-03T02:41:07;98841.13;;;0.34;54.15
75039;BME280;63609;49.992;14.512;2023-04-03T02:43:34;98830.53;;;0.56;53.13
75039;BME280;63609;49.992;14.512;2023-04-03T02:46:03;98832.22;;;0.57;52.11
75039;BME280;63609;49.992;14.512;2023-04-03T02:48:31;98831.81;;;0.47;52.29
75039;BME280;63609;49.992;14.512;2023-04-03T02:50:58;98830.88;;;0.48;52.16
75039;BME280;63609;49.992;14.512;2023-04-03T02:53:25;98837.22;;;0.03;52.08
75039;BME280;63609;49.992;14.512;2023-04-03T02:55:52;98848.41;;;0.47;52.15
75039;BME280;63609;49.992;14.512;2023-04-03T02:58:22;98838.47;;;0.15;52.34
75039;BME280;63609;49.992;14.512;2023-04-03T03:00:49;98845.84;;;0.07;52.32
75039;BME280;63609;49.992;14.512;2023-04-03T03:03:16;98848.84;;;-0.02;52.82
75039;BME280;63609;49.992;14.512;2023-04-03T03:05:44;98850.88;;;-0.29;53.54
75039;BME280;63609;49.992;14.512;2023-04-03T03:08:11;98852.22;;;-0.19;53.63
75039;BME280;63609;49.992;14.512;2023-04-03T03:10:38;98857.59;;;-0.86;55.21
75039;BME280;63609;49.992;14.512;2023-04-03T03:13:07;98857.09;;;-0.96;54.52
75039;BME280;63609;49.992;14.512;2023-04-03T03:15:33;98863.63;;;-0.84;54.61
75039;BME280;63609;49.992;14.512;2023-04-03T03:18:01;98868.13;;;-0.66;53.82
75039;BME280;63609;49.992;14.512;2023-04-03T03:20:28;98865.28;;;-0.60;53.95
75039;BME280;63609;49.992;14.512;2023-04-03T03:22:57;98859.97;;;-0.58;53.81
75039;BME280;63609;49.992;14.512;2023-04-03T03:25:24;98864.16;;;-0.54;53.36
75039;BME280;63609;49.992;14.512;2023-04-03T03:27:51;98865.81;;;-0.52;52.98
75039;BME280;63609;49.992;14.512;2023-04-03T03:30:18;98864.41;;;-0.82;54.24
75039;BME280;63609;49.992;14.512;2023-04-03T03:32:45;98870.00;;;-0.69;53.19
75039;BME280;63609;49.992;14.512;2023-04-03T03:35:13;98868.44;;;-0.73;53.59
75039;BME280;63609;49.992;14.512;2023-04-03T03:37:40;98873.25;;;-0.85;53.81
75039;BME280;63609;49.992;14.512;2023-04-03T03:40:08;98874.50;;;-1.40;55.93
75039;BME280;63609;49.992;14.512;2023-04-03T03:42:36;98880.31;;;-1.32;55.34
75039;BME280;63609;49.992;14.512;2023-04-03T03:45:03;98880.47;;;-1.13;54.53
75039;BME280;63609;49.992;14.512;2023-04-03T03:47:30;98885.25;;;-1.01;54.04
75039;BME280;63609;49.992;14.512;2023-04-03T03:49:58;98881.34;;;-1.13;54.67
75039;BME280;63609;49.992;14.512;2023-04-03T03:52:25;98874.63;;;-1.43;54.48
75039;BME280;63609;49.992;14.512;2023-04-03T03:54:53;98878.81;;;-1.62;55.46
75039;BME280;63609;49.992;14.512;2023-04-03T03:57:21;98869.75;;;-1.77;55.56
75039;BME280;63609;49.992;14.512;2023-04-03T03:59:48;98882.53;;;-1.45;56.06
75039;BME280;63609;49.992;14.512;2023-04-03T04:02:18;98891.47;;;-1.50;55.29
75039;BME280;63609;49.992;14.512;2023-04-03T04:04:45;98884.78;;;-1.59;55.73
75039;BME280;63609;49.992;14.512;2023-04-03T04:07:39;98885.81;;;-1.63;55.92
75039;BME280;63609;49.992;14.512;2023-04-03T04:10:06;98882.56;;;-1.70;55.99
75039;BME280;63609;49.992;14.512;2023-04-03T04:12:34;98887.75;;;-1.68;56.33
75039;BME280;63609;49.992;14.512;2023-04-03T04:15:16;98894.28;;;-1.55;55.58
75039;BME280;63609;49.992;14.512;2023-04-03T04:17:42;98895.38;;;-1.62;55.66
75039;BME280;63609;49.992;14.512;2023-04-03T04:20:11;98885.19;;;-1.70;54.93
75039;BME280;63609;49.992;14.512;2023-04-03T04:22:40;98901.69;;;-1.67;55.55
75039;BME280;63609;49.992;14.512;2023-04-03T04:25:09;98909.59;;;-1.69;55.93
75039;BME280;63609;49.992;14.512;2023-04-03T04:27:38;98907.19;;;-1.75;55.82
75039;BME280;63609;49.992;14.512;2023-04-03T04:30:07;98908.22;;;-2.04;56.01
75039;BME280;63609;49.992;14.512;2023-04-03T04:32:36;98909.38;;;-2.13;57.27
75039;BME280;63609;49.992;14.512;2023-04-03T04:35:05;98918.94;;;-2.12;56.49
75039;BME280;63609;49.992;14.512;2023-04-03T04:37:35;98914.63;;;-1.88;56.35
75039;BME280;63609;49.992;14.512;2023-04-03T04:40:03;98916.47;;;-2.16;56.96
75039;BME280;63609;49.992;14.512;2023-04-03T04:42:31;98920.00;;;-1.92;56.29
75039;BME280;63609;49.992;14.512;2023-04-03T04:44:58;98913.66;;;-2.10;56.77
75039;BME280;63609;49.992;14.512;2023-04-03T04:47:28;98922.72;;;-2.20;56.83
75039;BME280;63609;49.992;14.512;2023-04-03T04:50:00;98920.44;;;-2.31;57.58
75039;BME280;63609;49.992;14.512;2023-04-03T04:52:28;98919.53;;;-2.04;56.72
75039;BME280;63609;49.992;14.512;2023-04-03T04:54:55;98919.53;;;-2.30;57.54
75039;BME280;63609;49.992;14.512;2023-04-03T04:57:22;98922.47;;;-2.13;57.60
75039;BME280;63609;49.992;14.512;2023-04-03T04:59:49;98924.88;;;-2.07;56.58
75039;BME280;63609;49.992;14.512;2023-04-03T05:02:17;98928.50;;;-2.37;57.89
75039;BME280;63609;49.992;14.512;2023-04-03T05:04:45;98928.88;;;-2.23;56.81
75039;BME280;63609;49.992;14.512;2023-04-03T05:07:19;98929.09;;;-2.29;56.71
75039;BME280;63609;49.992;14.512;2023-04-03T05:09:47;98933.13;;;-1.94;56.74
75039;BME280;63609;49.992;14.512;2023-04-03T05:12:18;98942.97;;;-2.01;56.89
75039;BME280;63609;49.992;14.512;2023-04-03T05:14:53;98938.59;;;-2.00;56.59
75039;BME280;63609;49.992;14.512;2023-04-03T05:17:20;98944.22;;;-1.86;56.35
75039;BME280;63609;49.992;14.512;2023-04-03T05:19:51;98947.94;;;-1.68;55.87
75039;BME280;63609;49.992;14.512;2023-04-03T05:22:21;98953.31;;;-1.71;55.54
75039;BME280;63609;49.992;14.512;2023-04-03T05:24:51;98954.38;;;-1.77;55.76
75039;BME280;63609;49.992;14.512;2023-04-03T05:27:22;98964.41;;;-1.64;55.94
75039;BME280;63609;49.992;14.512;2023-04-03T05:29:54;98963.72;;;-1.45;55.86
75039;BME280;63609;49.992;14.512;2023-04-03T05:32:23;98956.16;;;-1.29;54.58
75039;BME280;63609;49.992;14.512;2023-04-03T05:35:02;98966.69;;;-1.30;54.54
75039;BME280;63609;49.992;14.512;2023-04-03T05:37:30;98962.16;;;-1.75;55.46
75039;BME280;63609;49.992;14.512;2023-04-03T05:39:57;98962.28;;;-1.53;56.49
75039;BME280;63609;49.992;14.512;2023-04-03T05:42:35;98968.91;;;-1.68;56.89
75039;BME280;63609;49.992;14.512;2023-04-03T05:45:06;98964.34;;;-1.38;55.97
75039;BME280;63609;49.992;14.512;2023-04-03T05:47:37;98968.84;;;-1.42;55.98
75039;BME280;63609;49.992;14.512;2023-04-03T05:50:06;98975.50;;;-1.56;55.60
75039;BME280;63609;49.992;14.512;2023-04-03T05:52:38;98977.38;;;-1.37;55.97
75039;BME280;63609;49.992;14.512;2023-04-03T05:55:07;98976.97;;;-1.01;54.80
75039;BME280;63609;49.992;14.512;2023-04-03T05:57:35;98978.91;;;-1.06;55.29
75039;BME280;63609;49.992;14.512;2023-04-03T06:00:07;98984.09;;;-1.04;54.80
75039;BME280;63609;49.992;14.512;2023-04-03T06:02:50;98989.25;;;-1.03;54.75
75039;BME280;63609;49.992;14.512;2023-04-03T06:05:22;98979.44;;;-0.51;53.53
75039;BME280;63609;49.992;14.512;2023-04-03T06:07:50;98983.41;;;-0.41;54.05
75039;BME280;63609;49.992;14.512;2023-04-03T06:10:17;98988.19;;;-0.97;55.19
75039;BME280;63609;49.992;14.512;2023-04-03T06:12:46;98998.38;;;-0.66;54.90
75039;BME280;63609;49.992;14.512;2023-04-03T06:15:13;99003.78;;;-0.71;54.14
75039;BME280;63609;49.992;14.512;2023-04-03T06:17:44;99000.72;;;-0.82;54.54
75039;BME280;63609;49.992;14.512;2023-04-03T06:20:12;99012.22;;;-1.10;55.23
75039;BME280;63609;49.992;14.512;2023-04-03T06:22:40;99007.88;;;-0.86;54.83
75039;BME280;63609;49.992;14.512;2023-04-03T06:25:10;99005.53;;;-0.48;53.48
75039;BME280;63609;49.992;14.512;2023-04-03T06:27:38;99005.25;;;-0.64;53.69
75039;BME280;63609;49.992;14.512;2023-04-03T06:30:07;99008.22;;;-0.28;53.70
75039;BME280;63609;49.992;14.512;2023-04-03T06:32:34;99014.59;;;0.10;52.72
75039;BME280;63609;49.992;14.512;2023-04-03T06:35:01;99013.91;;;-0.38;53.58
75039;BME280;63609;49.992;14.512;2023-04-03T06:37:29;99017.28;;;-0.13;52.96
75039;BME280;63609;49.992;14.512;2023-04-03T06:39:58;99006.06;;;0.05;53.19
75039;BME280;63609;49.992;14.512;2023-04-03T06:42:29;99002.63;;;-0.64;53.07
75039;BME280;63609;49.992;14.512;2023-04-03T06:45:07;99010.31;;;-0.36;53.45
75039;BME280;63609;49.992;14.512;2023-04-03T06:47:34;99019.28;;;-0.41;53.51
75039;BME280;63609;49.992;14.512;2023-04-03T06:50:02;99011.66;;;-0.48;53.37
75039;BME280;63609;49.992;14.512;2023-04-03T06:52:31;99017.69;;;-0.46;53.79
75039;BME280;63609;49.992;14.512;2023-04-03T06:54:58;99018.25;;;-0.16;52.70
75039;BME280;63609;49.992;14.512;2023-04-03T06:57:29;99020.91;;;0.27;51.99
75039;BME280;63609;49.992;14.512;2023-04-03T06:59:56;99027.84;;;-0.15;52.89
75039;BME280;63609;49.992;14.512;2023-04-03T07:02:24;99028.19;;;-0.02;52.45
75039;BME280;63609;49.992;14.512;2023-04-03T07:04:52;99031.00;;;0.15;52.51
75039;BME280;63609;49.992;14.512;2023-04-03T07:07:20;99034.91;;;0.68;51.49
75039;BME280;63609;49.992;14.512;2023-04-03T07:09:47;99034.94;;;0.47;52.37
75039;BME280;63609;49.992;14.512;2023-04-03T07:12:14;99037.03;;;1.39;50.66
75039;BME280;63609;49.992;14.512;2023-04-03T07:14:42;99034.41;;;1.58;49.59
75039;BME280;63609;49.992;14.512;2023-04-03T07:17:11;99031.16;;;1.33;48.71
75039;BME280;63609;49.992;14.512;2023-04-03T07:20:01;99028.56;;;1.52;48.50
75039;BME280;63609;49.992;14.512;2023-04-03T07:22:30;99036.16;;;1.95;48.21
75039;BME280;63609;49.992;14.512;2023-04-03T07:24:58;99029.00;;;1.22;48.84
75039;BME280;63609;49.992;14.512;2023-04-03T07:27:52;99020.91;;;0.88;49.20
75039;BME280;63609;49.992;14.512;2023-04-03T07:30:21;99031.06;;;0.76;49.99
75039;BME280;63609;49.992;14.512;2023-04-03T07:32:49;99031.66;;;1.22;49.10
75039;BME280;63609;49.992;14.512;2023-04-03T07:35:16;99044.38;;;1.70;48.76
75039;BME280;63609;49.992;14.512;2023-04-03T07:37:44;99037.41;;;1.51;47.70
75039;BME280;63609;49.992;14.512;2023-04-03T07:40:15;99041.09;;;1.26;49.20
75039;BME280;63609;49.992;14.512;2023-04-03T07:42:43;99035.06;;;1.24;48.53
75039;BME280;63609;49.992;14.512;2023-04-03T07:45:15;99044.13;;;1.37;49.58
75039;BME280;63609;49.992;14.512;2023-04-03T07:47:46;99037.44;;;1.87;48.09
75039;BME280;63609;49.992;14.512;2023-04-03T07:50:23;99034.38;;;2.49;47.56
75039;BME280;63609;49.992;14.512;2023-04-03T07:52:51;99027.84;;;2.56;46.50
75039;BME280;63609;49.992;14.512;2023-04-03T07:55:27;99027.53;;;2.62;45.96
75039;BME280;63609;49.992;14.512;2023-04-03T07:57:55;99029.06;;;2.32;46.83
75039;BME280;63609;49.992;14.512;2023-04-03T08:00:23;99038.31;;;3.25;45.67
75039;BME280;63609;49.992;14.512;2023-04-03T08:02:50;99032.78;;;3.63;45.62
75039;BME280;63609;49.992;14.512;2023-04-03T08:05:19;99033.97;;;2.91;44.35
75039;BME280;63609;49.992;14.512;2023-04-03T08:07:50;99039.03;;;2.79;44.64
75039;BME280;63609;49.992;14.512;2023-04-03T08:10:24;99044.84;;;2.51;45.74
75039;BME280;63609;49.992;14.512;2023-04-03T08:12:52;99040.97;;;1.68;46.86
75039;BME280;63609;49.992;14.512;2023-04-03T08:15:21;99039.31;;;1.47;46.31
75039;BME280;63609;49.992;14.512;2023-04-03T08:17:48;99031.91;;;1.74;45.64
75039;BME280;63609;49.992;14.512;2023-04-03T08:20:16;99041.78;;;2.24;45.48
75039;BME280;63609;49.992;14.512;2023-04-03T08:22:44;99044.91;;;1.96;45.80
75039;BME280;63609;49.992;14.512;2023-04-03T08:25:27;99051.53;;;1.67;46.33
75039;BME280;63609;49.992;14.512;2023-04-03T08:28:03;99043.00;;;1.62;46.24
75039;BME280;63609;49.992;14.512;2023-04-03T08:30:42;99049.00;;;2.20;45.19
75039;BME280;63609;49.992;14.512;2023-04-03T08:33:21;99041.41;;;1.95;45.92
75039;BME280;63609;49.992;14.512;2023-04-03T08:35:52;99042.97;;;2.53;43.65
75039;BME280;63609;49.992;14.512;2023-04-03T08:38:19;99042.91;;;2.54;43.93
75039;BME280;63609;49.992;14.512;2023-04-03T08:40:47;99036.66;;;2.03;45.14
75039;BME280;63609;49.992;14.512;2023-04-03T08:46:17;99051.41;;;1.51;45.89
75039;BME280;63609;49.992;14.512;2023-04-03T08:48:54;99046.03;;;1.90;45.32
75039;BME280;63609;49.992;14.512;2023-04-03T08:51:24;99049.03;;;2.55;43.19
75039;BME280;63609;49.992;14.512;2023-04-03T08:54:00;99060.81;;;2.82;44.01
75039;BME280;63609;49.992;14.512;2023-04-03T08:56:31;99052.00;;;2.13;44.74
75039;BME280;63609;49.992;14.512;2023-04-03T08:59:05;99060.91;;;2.81;44.17
75039;BME280;63609;49.992;14.512;2023-04-03T09:01:41;99063.69;;;2.78;44.04
75039;BME280;63609;49.992;14.512;2023-04-03T09:04:19;99062.75;;;2.61;43.51
75039;BME280;63609;49.992;14.512;2023-04-03T09:07:16;99062.06;;;2.41;43.89
75039;BME280;63609;49.992;14.512;2023-04-03T09:09:49;99057.09;;;2.34;43.98
75039;BME280;63609;49.992;14.512;2023-04-03T09:12:24;99067.31;;;2.58;43.55
75039;BME280;63609;49.992;14.512;2023-04-03T09:15:23;99059.50;;;3.24;42.74
75039;BME280;63609;49.992;14.512;2023-04-03T09:18:16;99067.47;;;2.89;43.13
75039;BME280;63609;49.992;14.512;2023-04-03T09:23:39;99066.41;;;2.05;44.03
75039;BME280;63609;49.992;14.512;2023-04-03T09:26:13;99073.31;;;2.08;44.32
75039;BME280;63609;49.992;14.512;2023-04-03T09:28:43;99067.41;;;2.39;42.79
75039;BME280;63609;49.992;14.512;2023-04-03T09:31:26;99068.19;;;1.67;44.33
75039;BME280;63609;49.992;14.512;2023-04-03T09:34:02;99063.19;;;1.99;43.09
75039;BME280;63609;49.992;14.512;2023-04-03T09:36:45;99069.97;;;1.67;44.64
75039;BME280;63609;49.992;14.512;2023-04-03T09:39:22;99062.41;;;1.97;41.42
75039;BME280;63609;49.992;14.512;2023-04-03T09:42:14;99074.69;;;2.34;41.52
75039;BME280;63609;49.992;14.512;2023-04-03T09:45:33;99075.78;;;2.11;41.35
75039;BME280;63609;49.992;14.512;2023-04-03T09:48:59;99074.13;;;2.62;41.17
75039;BME280;63609;49.992;14.512;2023-04-03T09:51:36;99073.69;;;2.88;39.41
75039;BME280;63609;49.992;14.512;2023-04-03T09:54:30;99072.94;;;2.69;39.60
75039;BME280;63609;49.992;14.512;2023-04-03T09:57:08;99081.44;;;3.09;40.74
75039;BME280;63609;49.992;14.512;2023-04-03T09:59:58;99075.19;;;3.27;40.23
75039;BME280;63609;49.992;14.512;2023-04-03T10:02:39;99080.81;;;2.86;40.07
75039;BME280;63609;49.992;14.512;2023-04-03T10:05:35;99068.16;;;3.43;39.51
75039;BME280;63609;49.992;14.512;2023-04-03T10:11:24;99068.25;;;3.42;38.62
75039;BME280;63609;49.992;14.512;2023-04-03T10:13:55;99071.84;;;4.05;38.45
75039;BME280;63609;49.992;14.512;2023-04-03T10:16:43;99066.25;;;3.29;38.87
75039;BME280;63609;49.992;14.512;2023-04-03T10:22:16;99070.81;;;4.08;38.03
75039;BME280;63609;49.992;14.512;2023-04-03T10:25:13;99072.38;;;3.96;37.25
75039;BME280;63609;49.992;14.512;2023-04-03T10:28:15;99064.66;;;3.76;37.54
75039;BME280;63609;49.992;14.512;2023-04-03T10:47:21;99043.69;;;3.24;38.96
75039;BME280;63609;49.992;14.512;2023-04-03T10:56:03;99051.00;;;3.19;40.05
75039;BME280;63609;49.992;14.512;2023-04-03T10:58:41;99047.75;;;3.62;39.14
75039;BME280;63609;49.992;14.512;2023-04-03T11:01:11;99053.03;;;2.96;40.06
75039;BME280;63609;49.992;14.512;2023-04-03T11:03:52;99052.25;;;3.12;38.08
75039;BME280;63609;49.992;14.512;2023-04-03T11:06:24;99046.16;;;3.27;38.60
75039;BME280;63609;49.992;14.512;2023-04-03T11:09:02;99048.09;;;3.23;38.85
75039;BME280;63609;49.992;14.512;2023-04-03T11:11:34;99043.06;;;3.52;38.58
75039;BME280;63609;49.992;14.512;2023-04-03T11:16:37;99038.72;;;3.18;39.22
75039;BME280;63609;49.992;14.512;2023-04-03T11:19:34;99039.22;;;3.09;40.19
75039;BME280;63609;49.992;14.512;2023-04-03T11:22:10;99038.91;;;2.97;40.18
75039;BME280;63609;49.992;14.512;2023-04-03T11:24:43;99041.78;;;2.93;40.40
75039;BME280;63609;49.992;14.512;2023-04-03T11:27:19;99038.53;;;3.38;40.13
75039;BME280;63609;49.992;14.512;2023-04-03T11:29:53;99038.56;;;3.21;40.29
75039;BME280;63609;49.992;14.512;2023-04-03T11:35:22;99030.56;;;3.22;40.56
75039;BME280;63609;49.992;14.512;2023-04-03T11:38:03;99030.38;;;3.58;40.01
75039;BME280;63609;49.992;14.512;2023-04-03T11:40:37;99022.88;;;3.51;38.90
75039;BME280;63609;49.992;14.512;2023-04-03T11:43:26;99008.41;;;3.58;39.82
75039;BME280;63609;49.992;14.512;2023-04-03T11:46:04;99020.41;;;3.48;39.65
75039;BME280;63609;49.992;14.512;2023-04-03T11:53:47;99011.69;;;2.97;40.11
75039;BME280;63609;49.992;14.512;2023-04-03T11:56:31;99007.53;;;2.07;40.49
75039;BME280;63609;49.992;14.512;2023-04-03T12:01:52;99017.28;;;3.88;37.91
75039;BME280;63609;49.992;14.512;2023-04-03T12:04:23;99017.47;;;4.47;37.96
75039;BME280;63609;49.992;14.512;2023-04-03T12:07:16;99000.69;;;4.02;37.48
75039;BME280;63609;49.992;14.512;2023-04-03T12:12:24;99004.16;;;4.03;37.22
75039;BME280;63609;49.992;14.512;2023-04-03T12:14:54;99003.88;;;4.23;36.69
75039;BME280;63609;49.992;14.512;2023-04-03T12:17:27;99003.16;;;3.89;36.62
75039;BME280;63609;49.992;14.512;2023-04-03T12:19:59;98995.56;;;3.68;37.04
75039;BME280;63609;49.992;14.512;2023-04-03T12:22:27;98994.59;;;4.16;36.69
75039;BME280;63609;49.992;14.512;2023-04-03T12:24:57;98994.22;;;4.38;35.24
75039;BME280;63609;49.992;14.512;2023-04-03T12:27:29;98985.41;;;4.67;35.70
75039;BME280;63609;49.992;14.512;2023-04-03T12:46:10;98983.19;;;4.60;33.87
75039;BME280;63609;49.992;14.512;2023-04-03T12:48:54;98986.09;;;5.13;35.32
75039;BME280;63609;49.992;14.512;2023-04-03T12:54:12;98991.50;;;4.53;35.74
75039;BME280;63609;49.992;14.512;2023-04-03T12:56:40;98998.22;;;4.59;36.24
75039;BME280;63609;49.992;14.512;2023-04-03T12:59:23;99000.44;;;4.37;35.28
75039;BME280;63609;49.992;14.512;2023-04-03T13:04:44;99002.09;;;3.76;34.79
75039;BME280;63609;49.992;14.512;2023-04-03T13:07:29;98996.44;;;4.00;34.74
75039;BME280;63609;49.992;14.512;2023-04-03T13:10:13;98991.47;;;3.93;35.76
75039;BME280;63609;49.992;14.512;2023-04-03T13:12:50;98990.31;;;4.29;34.43
75039;BME280;63609;49.992;14.512;2023-04-03T13:15:45;98983.16;;;4.31;34.73
75039;BME280;63609;49.992;14.512;2023-04-03T13:18:31;98985.69;;;4.77;34.77
75039;BME280;63609;49.992;14.512;2023-04-03T13:21:13;98984.28;;;4.71;34.22
75039;BME280;63609;49.992;14.512;2023-04-03T13:23:50;98990.09;;;3.71;35.36
75039;BME280;63609;49.992;14.512;2023-04-03T13:26:34;98982.09;;;4.04;36.16
75039;BME280;63609;49.992;14.512;2023-04-03T13:29:07;98972.56;;;4.75;35.14
75039;BME280;63609;49.992;14.512;2023-04-03T13:31:44;98989.03;;;4.20;34.45
75039;BME280;63609;49.992;14.512;2023-04-03T13:34:13;98985.59;;;3.88;34.92
75039;BME280;63609;49.992;14.512;2023-04-03T13:36:46;98986.78;;;3.99;36.54
75039;BME280;63609;49.992;14.512;2023-04-03T13:39:42;98986.00;;;4.42;36.60
75039;BME280;63609;49.992;14.512;2023-04-03T13:42:36;98980.84;;;4.55;35.87
75039;BME280;63609;49.992;14.512;2023-04-03T13:45:21;98983.03;;;4.63;36.03
75039;BME280;63609;49.992;14.512;2023-04-03T13:47:52;98980.47;;;4.01;35.67
75039;BME280;63609;49.992;14.512;2023-04-03T13:50:50;98979.72;;;3.99;35.79
75039;BME280;63609;49.992;14.512;2023-04-03T13:53:18;98977.13;;;3.82;36.23
75039;BME280;63609;49.992;14.512;2023-04-03T14:04:28;98971.53;;;3.41;35.69
75039;BME280;63609;49.992;14.512;2023-04-03T14:06:57;98967.00;;;3.90;35.72
75039;BME280;63609;49.992;14.512;2023-04-03T14:09:27;98975.69;;;3.92;35.43
75039;BME280;63609;49.992;14.512;2023-04-03T14:11:58;98971.13;;;3.64;35.32
75039;BME280;63609;49.992;14.512;2023-04-03T14:14:30;98966.81;;;4.09;35.32
75039;BME280;63609;49.992;14.512;2023-04-03T14:17:00;98966.16;;;3.89;35.56
75039;BME280;63609;49.992;14.512;2023-04-03T14:19:31;98966.00;;;4.22;35.17
75039;BME280;63609;49.992;14.512;2023-04-03T14:22:00;98970.91;;;3.83;35.46
75039;BME280;63609;49.992;14.512;2023-04-03T14:24:39;98969.41;;;3.47;35.76
75039;BME280;63609;49.992;14.512;2023-04-03T14:27:22;98966.00;;;3.45;35.63
75039;BME280;63609;49.992;14.512;2023-04-03T14:29:53;98965.56;;;3.37;35.77
75039;BME280;63609;49.992;14.512;2023-04-03T14:32:23;98969.91;;;4.01;35.01
75039;BME280;63609;49.992;14.512;2023-04-03T14:34:52;98971.00;;;3.81;34.27
75039;BME280;63609;49.992;14.512;2023-04-03T14:37:23;98973.41;;;3.86;35.17
75039;BME280;63609;49.992;14.512;2023-04-03T14:39:52;98966.28;;;3.08;36.61
75039;BME280;63609;49.992;14.512;2023-04-03T14:42:25;98972.06;;;2.98;36.79
75039;BME280;63609;49.992;14.512;2023-04-03T14:44:53;98973.03;;;3.29;35.70
75039;BME280;63609;49.992;14.512;2023-04-03T14:47:23;98967.44;;;3.35;36.27
75039;BME280;63609;49.992;14.512;2023-04-03T14:50:00;98967.41;;;3.19;35.92
75039;BME280;63609;49.992;14.512;2023-04-03T14:52:31;98967.66;;;2.99;35.51